Time;durP1;ratioP1;P1;durP2;ratioP2;P2;SDS_P1;SDS_P2;PMS_P1;PMS_P2;Temp;Humidity;BMP_temperature;BMP_pressure;BME280_temperature;BME280_humidity;BME280_pressure;Samples;Min_cycle;Max_cycle;Signal;HPM_P1;HPM_P2
2023/02/08 00:00:10;;;;;;;16.90;9.73;;;;;;;-3.91;70.37;97341.31;5050104;28;20183;-78
2023/02/08 00:02:36;;;;;;;15.03;10.47;;;;;;;-3.97;70.11;97341.41;5048852;28;20214;-78
2023/02/08 00:05:01;;;;;;;15.87;9.97;;;;;;;-3.96;70.49;97338.03;5055824;28;20196;-79
2023/02/08 00:07:26;;;;;;;16.10;10.17;;;;;;;-3.98;70.35;97334.63;5046250;28;20191;-81
2023/02/08 00:09:52;;;;;;;15.20;10.07;;;;;;;-4.05;70.99;97328.81;5046657;28;20582;-79
2023/02/08 00:12:17;;;;;;;17.13;10.03;;;;;;;-4.03;71.17;97331.31;5051073;28;20206;-80
2023/02/08 00:14:42;;;;;;;15.10;9.50;;;;;;;-4.01;71.31;97332.97;5056015;28;20213;-79
2023/02/08 00:17:08;;;;;;;17.33;10.47;;;;;;;-4.07;70.54;97327.13;5059289;28;20213;-79
2023/02/08 00:19:33;;;;;;;15.97;10.20;;;;;;;-4.14;70.91;97320.44;5058876;28;20186;-81
2023/02/08 00:21:58;;;;;;;19.40;10.10;;;;;;;-4.18;71.13;97326.38;5041580;28;20228;-78
2023/02/08 00:24:23;;;;;;;14.53;9.67;;;;;;;-4.22;71.09;97319.69;5049383;28;20662;-80
2023/02/08 00:26:49;;;;;;;16.30;9.57;;;;;;;-4.26;72.06;97321.38;5045413;28;20182;-80
2023/02/08 00:29:14;;;;;;;15.93;9.97;;;;;;;-4.31;71.52;97326.53;5050017;28;20190;-78
2023/02/08 00:31:39;;;;;;;12.93;9.63;;;;;;;-4.34;71.77;97323.16;5050339;28;20206;-79
2023/02/08 00:34:05;;;;;;;13.60;9.57;;;;;;;-4.35;71.27;97322.31;5044184;28;20204;-80
2023/02/08 00:36:30;;;;;;;18.07;9.47;;;;;;;-4.30;71.77;97315.50;5055176;28;20605;-80
2023/02/08 00:38:55;;;;;;;18.63;11.43;;;;;;;-4.32;71.31;97316.41;5057598;28;20193;-80
2023/02/08 00:41:21;;;;;;;18.17;11.43;;;;;;;-4.35;71.01;97312.16;5058932;28;20728;-79
2023/02/08 00:43:46;;;;;;;17.13;11.10;;;;;;;-4.41;71.21;97311.41;5051967;28;20647;-80
2023/02/08 00:46:11;;;;;;;17.93;10.97;;;;;;;-4.36;71.04;97314.72;5054599;28;20216;-78
2023/02/08 00:48:37;;;;;;;15.03;10.03;;;;;;;-4.37;71.06;97313.88;5053026;28;20178;-79
2023/02/08 00:51:04;;;;;;;17.37;9.67;;;;;;;-4.50;71.83;97307.25;5046006;28;20184;-80
2023/02/08 00:53:29;;;;;;;16.33;10.00;;;;;;;-4.51;71.42;97300.47;5061567;28;20265;-78
2023/02/08 00:55:55;;;;;;;14.60;10.50;;;;;;;-4.49;71.89;97311.47;5056510;28;20224;-78
2023/02/08 00:58:21;;;;;;;13.73;8.83;;;;;;;-4.53;71.43;97311.50;5055894;28;20193;-80
2023/02/08 01:00:50;;;;;;;16.07;10.00;;;;;;;-4.52;72.33;97316.56;5051018;28;20182;-79
2023/02/08 01:03:15;;;;;;;16.77;10.10;;;;;;;-4.58;72.04;97316.63;5059598;28;20201;-80
2023/02/08 01:05:40;;;;;;;13.83;9.63;;;;;;;-4.60;71.62;97318.31;5058698;28;20544;-80
2023/02/08 01:08:05;;;;;;;14.43;9.27;;;;;;;-4.65;71.99;97327.66;5052202;28;20190;-79
2023/02/08 01:10:31;;;;;;;15.90;10.57;;;;;;;-4.67;72.27;97330.22;5034782;28;20320;-80
2023/02/08 01:12:57;;;;;;;18.63;10.33;;;;;;;-4.73;72.28;97329.41;5056154;28;20226;-79
2023/02/08 01:15:22;;;;;;;19.43;10.57;;;;;;;-4.72;72.82;97323.50;5059975;28;20206;-78
2023/02/08 01:17:52;;;;;;;14.83;10.73;;;;;;;-4.72;72.39;97326.03;5069374;28;20283;-79
2023/02/08 01:20:18;;;;;;;16.20;10.43;;;;;;;-4.76;71.82;97319.31;5060927;28;20213;-79
2023/02/08 01:22:43;;;;;;;16.20;9.73;;;;;;;-4.74;72.30;97318.44;5055567;28;20838;-79
2023/02/08 01:25:09;;;;;;;16.30;9.90;;;;;;;-4.77;72.36;97321.00;5061493;28;20177;-78
2023/02/08 01:27:35;;;;;;;14.50;9.60;;;;;;;-4.74;71.90;97310.84;5055578;28;20251;-79
2023/02/08 01:30:00;;;;;;;14.40;8.80;;;;;;;-4.71;71.72;97312.50;5054244;28;20246;-79
2023/02/08 01:32:25;;;;;;;16.03;9.00;;;;;;;-4.80;71.35;97308.34;5056522;28;20217;-79
2023/02/08 01:34:51;;;;;;;15.00;9.17;;;;;;;-4.78;71.27;97306.63;5048756;28;20199;-79
2023/02/08 01:37:16;;;;;;;15.60;9.10;;;;;;;-4.80;70.48;97293.13;5053595;28;20182;-79
2023/02/08 01:39:41;;;;;;;15.50;9.83;;;;;;;-4.70;70.21;97304.88;5052839;28;20194;-79
2023/02/08 01:42:12;;;;;;;14.20;8.57;;;;;;;-4.69;70.02;97309.09;5051348;28;20213;-79
2023/02/08 01:44:56;;;;;;;15.83;9.23;;;;;;;-4.69;69.67;97304.00;5050568;28;20564;-80
2023/02/08 01:47:21;;;;;;;13.80;8.93;;;;;;;-4.75;69.73;97293.94;5057170;28;20236;-79
2023/02/08 01:49:46;;;;;;;15.87;9.27;;;;;;;-4.70;67.96;97297.28;5052289;28;20534;-81
2023/02/08 01:52:16;;;;;;;14.63;8.90;;;;;;;-4.62;67.91;97292.13;5052142;28;20682;-79
2023/02/08 01:55:22;;;;;;;13.57;8.83;;;;;;;-4.70;67.96;97286.28;5052109;28;20231;-79
2023/02/08 01:57:51;;;;;;;13.47;8.67;;;;;;;-4.64;66.40;97283.72;5051622;28;20672;-81
2023/02/08 02:00:21;;;;;;;12.93;8.10;;;;;;;-4.64;66.46;97282.00;5062145;28;20244;-79
2023/02/08 02:02:47;;;;;;;13.53;8.70;;;;;;;-4.62;66.09;97276.94;5063436;28;20297;-80
2023/02/08 02:05:17;;;;;;;11.17;7.00;;;;;;;-4.66;66.20;97280.34;5055968;28;20701;-79
2023/02/08 02:07:42;;;;;;;13.67;8.47;;;;;;;-4.65;65.84;97287.09;5045915;28;20240;-80
2023/02/08 02:10:09;;;;;;;14.97;9.13;;;;;;;-4.70;65.89;97273.63;5048026;28;20686;-79
2023/02/08 02:12:36;;;;;;;12.17;8.07;;;;;;;-4.69;66.31;97272.75;5051229;28;20206;-80
2023/02/08 02:15:02;;;;;;;10.13;7.30;;;;;;;-4.67;65.66;97269.38;5041964;28;20214;-79
2023/02/08 02:17:27;;;;;;;12.57;8.20;;;;;;;-4.70;66.39;97258.41;5060360;28;20193;-79
2023/02/08 02:20:05;;;;;;;13.87;8.13;;;;;;;-4.68;65.30;97261.75;5049731;28;20187;-79
2023/02/08 02:22:31;;;;;;;12.73;8.10;;;;;;;-4.66;65.42;97257.53;5034532;28;20211;-79
2023/02/08 02:25:31;;;;;;;13.30;8.27;;;;;;;-4.64;65.81;97254.13;5057123;28;20673;-79
2023/02/08 02:28:08;;;;;;;11.67;7.60;;;;;;;-4.63;64.71;97250.75;5050859;28;20222;-80
2023/02/08 02:30:58;;;;;;;15.53;8.10;;;;;;;-4.68;65.25;97247.41;5056962;28;20185;-79
2023/02/08 02:33:41;;;;;;;11.73;7.50;;;;;;;-4.66;64.43;97250.78;5062074;28;20574;-80
2023/02/08 02:36:23;;;;;;;11.47;7.20;;;;;;;-4.66;64.58;97252.47;5053427;28;20289;-79
2023/02/08 02:39:01;;;;;;;10.80;7.67;;;;;;;-4.73;64.27;97256.75;5059395;28;20213;-80
2023/02/08 02:44:56;;;;;;;12.87;8.43;;;;;;;-4.68;64.70;97256.69;5048000;28;20219;-79
2023/02/08 02:47:48;;;;;;;12.00;7.47;;;;;;;-4.77;64.86;97261.84;5045357;28;20273;-79
2023/02/08 02:50:20;;;;;;;11.27;8.13;;;;;;;-4.83;65.93;97250.09;5047688;28;20273;-79
2023/02/08 02:52:54;;;;;;;13.90;8.13;;;;;;;-4.86;66.20;97252.63;5055170;28;20698;-78
2023/02/08 02:55:21;;;;;;;11.97;7.63;;;;;;;-4.92;66.40;97260.31;5068112;28;20215;-79
2023/02/08 02:57:48;;;;;;;11.33;7.73;;;;;;;-4.92;66.31;97251.00;5049497;28;20196;-81
2023/02/08 03:00:21;;;;;;;11.40;8.10;;;;;;;-4.87;65.94;97259.38;5043955;28;20190;-79
2023/02/08 03:02:46;;;;;;;11.17;7.47;;;;;;;-4.87;65.94;97253.47;5051293;28;20209;-78
2023/02/08 03:05:12;;;;;;;14.50;8.00;;;;;;;-4.91;66.42;97260.28;5057658;28;20232;-79
2023/02/08 03:07:56;;;;;;;13.63;8.57;;;;;;;-4.95;66.30;97256.06;5029535;28;20178;-80
2023/02/08 03:11:00;;;;;;;13.63;8.07;;;;;;;-4.98;66.86;97253.56;5053999;28;20545;-79
2023/02/08 03:13:32;;;;;;;10.40;7.30;;;;;;;-4.90;66.08;97256.06;5051590;28;20279;-80
2023/02/08 03:16:02;;;;;;;13.90;8.63;;;;;;;-4.89;65.90;97255.19;5045709;28;20673;-80
2023/02/08 03:18:42;;;;;;;12.07;8.13;;;;;;;-4.94;66.15;97252.72;5048906;28;20341;-81
2023/02/08 03:21:16;;;;;;;14.33;8.53;;;;;;;-4.95;66.57;97252.69;5042609;28;20272;-80
2023/02/08 03:23:55;;;;;;;13.10;7.57;;;;;;;-5.00;65.85;97254.44;5055319;28;20189;-77
2023/02/08 03:26:38;;;;;;;13.63;8.53;;;;;;;-4.98;65.66;97253.56;5045316;28;20177;-80
2023/02/08 03:29:18;;;;;;;13.07;7.70;;;;;;;-4.97;65.96;97260.31;5053159;28;20194;-80
2023/02/08 03:31:47;;;;;;;13.27;7.57;;;;;;;-4.94;66.46;97254.41;5047364;28;20216;-79
2023/02/08 03:34:17;;;;;;;11.97;7.90;;;;;;;-4.92;66.25;97258.59;5051054;28;20300;-79
2023/02/08 03:36:56;;;;;;;14.23;8.70;;;;;;;-4.96;66.15;97256.94;5052599;28;20181;-80
2023/02/08 03:39:25;;;;;;;14.23;9.20;;;;;;;-4.98;66.55;97258.66;5056235;28;20202;-79
2023/02/08 03:41:54;;;;;;;12.53;7.60;;;;;;;-4.92;65.96;97263.66;5052148;28;20769;-80
2023/02/08 03:44:35;;;;;;;13.27;8.67;;;;;;;-4.98;66.61;97258.66;5046722;28;20182;-79
2023/02/08 03:47:05;;;;;;;14.77;8.90;;;;;;;-4.94;66.34;97255.25;5043598;28;20189;-80
2023/02/08 03:49:33;;;;;;;16.37;9.03;;;;;;;-4.95;66.23;97256.06;5046472;28;20198;-79
2023/02/08 03:52:01;;;;;;;13.57;8.57;;;;;;;-5.01;65.88;97251.06;5053988;28;20206;-79
2023/02/08 03:54:30;;;;;;;13.60;8.23;;;;;;;-4.96;66.32;97249.31;5050801;28;20209;-79
2023/02/08 03:57:03;;;;;;;13.33;7.87;;;;;;;-4.98;66.74;97252.75;5051172;28;20240;-80
2023/02/08 03:59:35;;;;;;;15.37;8.63;;;;;;;-4.85;65.85;97255.16;5051405;28;20200;-79
2023/02/08 04:02:03;;;;;;;16.83;8.90;;;;;;;-4.89;66.49;97250.97;5054645;28;20209;-79
2023/02/08 04:04:31;;;;;;;15.57;8.73;;;;;;;-4.76;65.63;97253.41;5053637;28;20187;-79
2023/02/08 04:06:56;;;;;;;13.20;8.70;;;;;;;-4.79;65.93;97250.88;5044857;28;20195;-80
2023/02/08 04:09:22;;;;;;;13.73;8.27;;;;;;;-4.83;65.27;97254.31;5043269;28;20725;-79
2023/02/08 04:11:47;;;;;;;12.27;8.13;;;;;;;-4.86;65.85;97250.97;5055620;28;20212;-79
2023/02/08 04:14:12;;;;;;;13.43;8.13;;;;;;;-4.83;65.31;97251.78;5056271;28;20206;-79
2023/02/08 04:16:38;;;;;;;14.73;8.83;;;;;;;-4.82;64.63;97246.69;5058676;28;20243;-80
2023/02/08 04:19:03;;;;;;;11.80;8.40;;;;;;;-4.85;65.07;97245.03;5051309;28;20534;-79
2023/02/08 04:21:28;;;;;;;12.13;8.13;;;;;;;-4.82;64.48;97238.25;5054640;28;20719;-79
2023/02/08 04:23:53;;;;;;;14.27;8.53;;;;;;;-4.85;65.03;97247.56;5045330;28;20186;-78
2023/02/08 04:26:19;;;;;;;14.33;8.13;;;;;;;-4.78;64.30;97244.97;5048039;28;20185;-79
2023/02/08 04:28:44;;;;;;;13.03;8.27;;;;;;;-4.76;64.14;97248.34;5056283;28;20205;-79
2023/02/08 04:31:09;;;;;;;14.73;8.33;;;;;;;-4.77;63.66;97252.56;5059752;28;20178;-78
2023/02/08 04:33:35;;;;;;;13.03;8.00;;;;;;;-4.78;64.18;97250.03;5051644;28;20217;-80
2023/02/08 04:36:00;;;;;;;15.40;8.13;;;;;;;-4.78;64.28;97245.78;5050621;28;20252;-81
2023/02/08 04:38:25;;;;;;;14.43;8.60;;;;;;;-4.80;63.81;97241.59;5051913;28;20257;-81
2023/02/08 04:40:51;;;;;;;13.47;8.40;;;;;;;-4.75;63.30;97244.94;5049678;28;20289;-79
2023/02/08 04:43:16;;;;;;;11.80;7.53;;;;;;;-4.84;64.64;97238.28;5054616;28;20216;-78
2023/02/08 04:45:41;;;;;;;13.70;8.03;;;;;;;-4.77;64.04;97239.03;5054335;28;20200;-79
2023/02/08 04:48:08;;;;;;;14.87;8.93;;;;;;;-4.76;63.38;97239.03;5056683;28;20202;-78
2023/02/08 04:50:33;;;;;;;13.03;8.57;;;;;;;-4.79;64.74;97238.22;5052368;28;20654;-79
2023/02/08 04:52:59;;;;;;;14.57;8.87;;;;;;;-4.78;64.62;97234.81;5048122;28;20197;-79
2023/02/08 04:55:24;;;;;;;13.77;8.10;;;;;;;-4.96;64.70;97230.75;5059767;28;20744;-79
2023/02/08 04:57:49;;;;;;;15.47;9.03;;;;;;;-4.82;64.29;97228.94;5046697;28;20677;-79
2023/02/08 05:00:15;;;;;;;13.37;8.60;;;;;;;-4.85;63.83;97226.47;5063847;28;20603;-80
2023/02/08 05:02:40;;;;;;;13.03;8.43;;;;;;;-4.88;63.28;97219.69;5052495;28;20201;-79
2023/02/08 05:05:06;;;;;;;14.80;8.60;;;;;;;-4.87;63.29;97220.53;5044363;28;20653;-79
2023/02/08 05:07:31;;;;;;;12.13;8.23;;;;;;;-4.78;62.30;97219.63;5049567;28;20231;-80
2023/02/08 05:09:56;;;;;;;17.20;9.40;;;;;;;-4.71;61.71;97221.25;5051711;28;20217;-80
2023/02/08 05:12:22;;;;;;;11.63;7.77;;;;;;;-4.74;62.96;97226.34;5053203;28;20214;-79
2023/02/08 05:14:47;;;;;;;13.53;8.33;;;;;;;-4.76;62.09;97217.94;5046340;28;20209;-79
2023/02/08 05:17:12;;;;;;;14.30;8.60;;;;;;;-4.71;61.93;97222.09;5045656;28;20195;-77
2023/02/08 05:19:38;;;;;;;10.33;7.57;;;;;;;-4.68;61.82;97219.53;5054155;28;20186;-79
2023/02/08 05:22:03;;;;;;;14.27;7.93;;;;;;;-4.69;61.45;97215.28;5056547;28;20213;-78
2023/02/08 05:24:28;;;;;;;10.23;7.03;;;;;;;-4.69;61.65;97219.53;5053423;28;20187;-80
2023/02/08 05:26:54;;;;;;;12.47;7.73;;;;;;;-4.68;61.43;97211.94;5042841;28;20236;-80
2023/02/08 05:29:19;;;;;;;15.93;8.10;;;;;;;-4.74;61.02;97217.06;5054585;28;20211;-78
2023/02/08 05:31:44;;;;;;;12.90;8.30;;;;;;;-4.72;61.64;97220.41;5046855;28;20206;-79
2023/02/08 05:34:11;;;;;;;14.27;8.20;;;;;;;-4.69;60.89;97211.91;5048984;28;20204;-79
2023/02/08 05:36:36;;;;;;;11.73;7.40;;;;;;;-4.72;60.10;97217.88;5051964;28;20265;-79
2023/02/08 05:39:01;;;;;;;13.50;8.23;;;;;;;-4.68;60.21;97218.66;5058033;28;20225;-79
2023/02/08 05:41:26;;;;;;;11.63;7.83;;;;;;;-4.67;60.43;97218.69;5048609;28;20218;-79
2023/02/08 05:43:52;;;;;;;16.87;7.40;;;;;;;-4.67;60.59;97220.38;5043431;28;20185;-79
2023/02/08 05:46:17;;;;;;;13.00;7.97;;;;;;;-4.66;60.76;97216.97;5049685;28;20209;-79
2023/02/08 05:48:42;;;;;;;14.27;8.10;;;;;;;-4.66;60.91;97219.53;5055407;28;20190;-79
2023/02/08 05:51:08;;;;;;;10.37;6.90;;;;;;;-4.69;60.67;97224.59;5050144;28;20198;-78
2023/02/08 05:53:33;;;;;;;12.73;7.63;;;;;;;-4.76;61.20;97217.94;5048344;28;20213;-78
2023/02/08 05:55:58;;;;;;;12.53;7.67;;;;;;;-4.71;60.53;97222.09;5049802;28;20210;-79
2023/02/08 05:58:24;;;;;;;14.80;7.90;;;;;;;-4.72;60.59;97224.63;5045884;28;20202;-77
2023/02/08 06:00:49;;;;;;;14.30;7.80;;;;;;;-4.71;60.29;97227.16;5050124;28;20265;-79
2023/02/08 06:03:15;;;;;;;11.13;7.70;;;;;;;-4.70;61.19;97220.38;5048130;28;20214;-80
2023/02/08 06:05:41;;;;;;;14.23;8.07;;;;;;;-4.70;60.37;97222.91;5055580;28;20210;-81
2023/02/08 06:08:06;;;;;;;11.73;7.67;;;;;;;-4.68;60.23;97226.28;5048242;28;20293;-79
2023/02/08 06:10:32;;;;;;;12.90;8.53;;;;;;;-4.72;61.14;97227.16;5048552;28;20189;-81
2023/02/08 06:12:57;;;;;;;12.97;7.50;;;;;;;-4.72;61.05;97229.72;5045152;28;20229;-80
2023/02/08 06:15:22;;;;;;;15.77;9.27;;;;;;;-4.68;60.37;97226.28;5043435;28;20219;-78
2023/02/08 06:17:48;;;;;;;11.80;7.90;;;;;;;-4.70;60.55;97228.00;5044332;28;20190;-79
2023/02/08 06:20:13;;;;;;;12.17;8.00;;;;;;;-4.69;60.33;97239.81;5039516;28;20197;-79
2023/02/08 06:22:38;;;;;;;13.70;7.67;;;;;;;-4.73;60.12;97228.03;5050881;28;20207;-79
2023/02/08 06:25:04;;;;;;;12.07;7.73;;;;;;;-4.69;59.80;97234.72;5041856;28;20187;-79
2023/02/08 06:27:29;;;;;;;15.07;8.30;;;;;;;-4.64;59.46;97233.00;5048232;28;20190;-80
2023/02/08 06:29:54;;;;;;;13.50;8.10;;;;;;;-4.63;59.41;97235.53;5050019;28;20192;-79
2023/02/08 06:32:20;;;;;;;13.07;7.77;;;;;;;-4.58;59.11;97243.94;5045250;28;20320;-78
2023/02/08 06:34:47;;;;;;;13.97;8.20;;;;;;;-4.58;59.67;97238.03;5051242;28;20254;-80
2023/02/08 06:37:12;;;;;;;16.17;8.77;;;;;;;-4.65;59.73;97244.00;5037294;28;20550;-79
2023/02/08 06:39:37;;;;;;;14.07;8.43;;;;;;;-4.60;60.38;97243.09;5050502;28;20221;-78
2023/02/08 06:42:03;;;;;;;14.80;8.77;;;;;;;-4.62;60.11;97243.97;5025667;28;20202;-80
2023/02/08 06:44:28;;;;;;;14.37;8.30;;;;;;;-4.61;59.80;97238.03;5049133;28;20617;-80
2023/02/08 06:46:53;;;;;;;12.97;8.33;;;;;;;-4.68;59.68;97242.34;5053657;28;20202;-79
2023/02/08 06:49:19;;;;;;;12.10;7.57;;;;;;;-4.73;59.92;97241.53;5041984;28;20187;-79
2023/02/08 06:51:44;;;;;;;13.20;8.50;;;;;;;-4.67;60.11;97243.19;5042717;28;20206;-79
2023/02/08 06:54:09;;;;;;;15.50;8.40;;;;;;;-4.67;60.07;97238.97;5050449;28;20188;-79
2023/02/08 06:56:35;;;;;;;14.10;8.90;;;;;;;-4.64;59.93;97248.22;5045150;28;20530;-79
2023/02/08 06:59:00;;;;;;;12.43;8.40;;;;;;;-4.60;60.36;97243.09;5040048;28;20247;-78
2023/02/08 07:01:25;;;;;;;17.23;8.30;;;;;;;-4.65;60.04;97241.47;5049550;28;20190;-77
2023/02/08 07:03:51;;;;;;;13.33;8.37;;;;;;;-4.71;61.31;97249.13;5049753;28;20183;-79
2023/02/08 07:06:18;;;;;;;15.77;8.77;;;;;;;-4.66;61.64;97255.00;5052946;28;20255;-80
2023/02/08 07:08:44;;;;;;;14.13;9.07;;;;;;;-4.69;61.28;97257.56;5059341;28;20210;-80
2023/02/08 07:11:15;;;;;;;16.13;8.67;;;;;;;-4.77;61.92;97252.56;5049908;28;20212;-80
2023/02/08 07:13:40;;;;;;;14.80;8.90;;;;;;;-4.70;61.64;97255.88;5049700;28;20186;-79
2023/02/08 07:16:07;;;;;;;13.97;9.00;;;;;;;-4.69;61.36;97266.00;5045346;28;20224;-78
2023/02/08 07:18:32;;;;;;;15.53;8.40;;;;;;;-4.67;60.84;97259.25;5053431;28;20200;-79
2023/02/08 07:20:58;;;;;;;17.03;9.73;;;;;;;-4.62;60.82;97259.19;5038737;28;20182;-80
2023/02/08 07:23:23;;;;;;;16.00;9.17;;;;;;;-4.68;61.34;97251.63;5053351;28;20292;-77
2023/02/08 07:26:04;;;;;;;16.43;9.13;;;;;;;-4.60;60.37;97254.94;5042144;28;20179;-78
2023/02/08 07:28:29;;;;;;;16.77;9.20;;;;;;;-4.58;60.08;97263.38;5052473;28;20562;-80
2023/02/08 07:30:55;;;;;;;15.47;8.73;;;;;;;-4.56;60.42;97257.44;5052262;28;20185;-78
2023/02/08 07:33:20;;;;;;;18.10;9.53;;;;;;;-4.43;60.23;97255.59;5047908;28;20926;-79
2023/02/08 07:35:46;;;;;;;13.60;8.47;;;;;;;-4.53;59.63;97256.56;5048419;28;20206;-79
2023/02/08 07:38:11;;;;;;;13.53;8.93;;;;;;;-4.30;58.12;97259.72;5054974;28;20194;-79
2023/02/08 07:40:37;;;;;;;12.10;8.27;;;;;;;-4.38;59.06;97255.56;5042324;28;20658;-81
2023/02/08 07:43:02;;;;;;;15.40;8.37;;;;;;;-4.33;58.73;97258.88;5043540;28;20209;-78
2023/02/08 07:45:28;;;;;;;14.23;8.00;;;;;;;-4.23;57.98;97255.41;5049679;28;20186;-78
2023/02/08 07:47:53;;;;;;;15.63;8.83;;;;;;;-4.13;56.84;97258.69;5050542;28;20193;-79
2023/02/08 07:50:18;;;;;;;12.03;7.73;;;;;;;-4.09;57.52;97256.09;5042262;28;20190;-79
2023/02/08 07:52:45;;;;;;;12.87;8.47;;;;;;;-4.01;57.06;97250.94;5043469;28;20206;-77
2023/02/08 07:55:15;;;;;;;15.63;8.83;;;;;;;-3.96;56.20;97256.81;5046223;28;20678;-79
2023/02/08 07:57:44;;;;;;;14.77;8.70;;;;;;;-3.99;57.20;97246.66;5054825;28;20177;-78
2023/02/08 08:00:10;;;;;;;15.73;9.07;;;;;;;-3.95;56.22;97248.31;5038327;28;20186;-80
2023/02/08 08:02:35;;;;;;;15.13;7.90;;;;;;;-3.85;56.42;97239.75;5047438;28;20245;-81
2023/02/08 08:05:01;;;;;;;13.63;7.87;;;;;;;-3.69;56.18;97240.38;5044906;28;20194;-80
2023/02/08 08:07:26;;;;;;;13.97;8.40;;;;;;;-3.69;55.99;97242.09;5042836;28;20187;-80
2023/02/08 08:09:51;;;;;;;15.80;8.33;;;;;;;-3.58;55.47;97235.16;5048103;28;20565;-79
2023/02/08 08:12:17;;;;;;;13.83;8.03;;;;;;;-3.68;55.85;97234.44;5046576;28;20689;-80
2023/02/08 08:14:42;;;;;;;13.70;8.50;;;;;;;-3.52;55.58;97233.38;5041387;28;20217;-78
2023/02/08 08:17:07;;;;;;;14.37;9.20;;;;;;;-3.56;56.07;97235.97;5050101;28;20240;-78
2023/02/08 08:19:33;;;;;;;14.33;8.33;;;;;;;-3.46;55.54;97243.44;5054681;28;20239;-79
2023/02/08 08:21:58;;;;;;;14.53;8.70;;;;;;;-3.45;55.02;97245.09;5053291;28;20716;-78
2023/02/08 08:24:23;;;;;;;14.07;8.80;;;;;;;-3.45;55.13;97245.09;5051905;28;20190;-80
2023/02/08 08:26:49;;;;;;;13.43;8.33;;;;;;;-3.32;54.71;97243.25;5064095;28;20182;-79
2023/02/08 08:29:14;;;;;;;15.33;9.00;;;;;;;-3.43;55.37;97245.13;5050557;28;20213;-80
2023/02/08 08:31:42;;;;;;;15.17;8.47;;;;;;;-3.30;53.89;97241.53;5061593;28;20239;-79
2023/02/08 08:34:07;;;;;;;13.60;7.93;;;;;;;-3.33;54.57;97245.81;5056540;28;20232;-80
2023/02/08 08:36:32;;;;;;;16.27;8.50;;;;;;;-3.29;53.49;97243.19;5058288;28;20198;-78
2023/02/08 08:38:57;;;;;;;13.27;8.03;;;;;;;-3.23;53.41;97237.19;5058884;28;20214;-80
2023/02/08 08:41:26;;;;;;;14.20;8.43;;;;;;;-3.06;53.20;97240.31;5060404;28;20193;-79
2023/02/08 08:43:51;;;;;;;17.03;8.87;;;;;;;-2.96;54.04;97241.84;5053020;28;20281;-80
2023/02/08 08:46:16;;;;;;;13.23;8.07;;;;;;;-2.94;53.33;97235.03;5055765;28;20661;-81
2023/02/08 08:48:42;;;;;;;14.33;8.13;;;;;;;-2.77;53.39;97242.38;5054156;28;20177;-79
2023/02/08 08:51:07;;;;;;;13.97;9.03;;;;;;;-2.83;52.73;97237.38;5055858;28;20183;-79
2023/02/08 08:53:33;;;;;;;14.03;8.50;;;;;;;-2.73;52.99;97238.94;5049158;28;20691;-80
2023/02/08 08:55:58;;;;;;;14.80;8.80;;;;;;;-2.77;52.75;97239.84;5047208;28;20285;-79
2023/02/08 08:58:23;;;;;;;13.23;8.27;;;;;;;-2.60;52.21;97237.84;5047018;28;20214;-80
2023/02/08 09:00:49;;;;;;;16.13;8.73;;;;;;;-2.60;51.93;97239.56;5053682;28;20220;-78
2023/02/08 09:03:14;;;;;;;15.30;8.50;;;;;;;-2.36;51.96;97233.19;5059193;28;20218;-80
2023/02/08 09:05:40;;;;;;;14.30;9.37;;;;;;;-2.34;52.44;97234.00;5051174;28;20194;-79
2023/02/08 09:08:05;;;;;;;13.63;8.53;;;;;;;-2.29;51.58;97235.59;5049630;28;20269;-79
2023/02/08 09:10:30;;;;;;;18.73;9.77;;;;;;;-2.30;52.07;97235.63;5053109;28;20186;-79
2023/02/08 09:12:57;;;;;;;15.43;9.13;;;;;;;-2.23;51.92;97242.28;5052240;28;20213;-79
2023/02/08 09:15:22;;;;;;;14.43;8.83;;;;;;;-2.17;51.49;97237.06;5053301;28;20206;-80
2023/02/08 09:17:48;;;;;;;13.03;7.77;;;;;;;-2.16;50.74;97240.47;5042799;28;20254;-79
2023/02/08 09:20:13;;;;;;;13.83;8.90;;;;;;;-2.10;50.24;97238.63;5058083;28;20187;-79
2023/02/08 09:22:39;;;;;;;12.73;8.30;;;;;;;-1.96;49.86;97232.44;5032574;28;20720;-80
2023/02/08 09:25:06;;;;;;;14.90;9.53;;;;;;;-1.93;50.50;97240.03;5047520;28;20716;-79
2023/02/08 09:27:31;;;;;;;12.37;7.97;;;;;;;-2.07;50.54;97233.47;5053463;28;20173;-79
2023/02/08 09:29:57;;;;;;;15.23;9.10;;;;;;;-1.91;50.22;97235.72;5053917;28;20189;-80
2023/02/08 09:32:22;;;;;;;13.30;8.37;;;;;;;-1.91;50.44;97234.03;5052361;28;20234;-80
2023/02/08 09:34:47;;;;;;;14.23;9.20;;;;;;;-1.75;50.31;97234.56;5050379;28;20202;-79
2023/02/08 09:37:16;;;;;;;15.83;8.13;;;;;;;-1.78;50.64;97230.34;5044359;28;20191;-80
2023/02/08 09:39:41;;;;;;;16.47;9.53;;;;;;;-1.59;50.44;97232.50;5051843;28;20193;-80
2023/02/08 09:42:39;;;;;;;14.77;9.20;;;;;;;-1.53;50.73;97232.38;5056329;28;20214;-79
2023/02/08 09:45:30;;;;;;;17.87;12.27;;;;;;;-1.29;51.02;97225.91;5047885;28;20199;-78
2023/02/08 09:48:35;;;;;;;17.27;9.73;;;;;;;-1.26;50.42;97231.75;5054261;28;20186;-78
2023/02/08 09:51:08;;;;;;;15.37;9.67;;;;;;;-1.19;50.86;97217.16;4999668;28;20621;-80
2023/02/08 09:53:39;;;;;;;16.13;9.80;;;;;;;-1.18;51.40;97222.22;5013822;28;20212;-80
2023/02/08 09:56:06;;;;;;;14.53;8.83;;;;;;;-1.08;50.41;97229.66;5013521;28;20223;-79
2023/02/08 09:58:40;;;;;;;15.20;9.43;;;;;;;-1.01;50.88;97231.19;5013170;28;20188;-79
2023/02/08 10:01:12;;;;;;;16.03;8.63;;;;;;;-0.83;49.42;97228.22;5004624;28;20240;-78
2023/02/08 10:03:41;;;;;;;15.23;9.13;;;;;;;-0.95;50.15;97229.34;5016513;28;20207;-81
2023/02/08 10:06:09;;;;;;;15.80;8.60;;;;;;;-0.80;48.64;97235.78;5005869;28;20211;-78
2023/02/08 10:08:35;;;;;;;14.23;8.70;;;;;;;-0.63;49.28;97227.72;5009085;28;20275;-80
2023/02/08 10:11:28;;;;;;;15.40;8.93;;;;;;;-0.50;49.45;97234.19;5010824;28;20194;-80
2023/02/08 10:14:38;;;;;;;18.43;8.93;;;;;;;-0.42;49.31;97236.56;5009574;28;20243;-79
2023/02/08 10:17:24;;;;;;;14.07;8.13;;;;;;;-0.52;49.25;97240.22;5016480;28;20188;-79
2023/02/08 10:20:24;;;;;;;15.87;9.10;;;;;;;-0.49;49.53;97228.22;5013173;28;20193;-79
2023/02/08 10:23:23;;;;;;;13.57;8.37;;;;;;;-0.29;48.50;97233.63;5065190;28;20227;-79
2023/02/08 10:26:08;;;;;;;15.87;8.77;;;;;;;-0.32;48.44;97226.06;5055294;28;20194;-81
2023/02/08 10:28:52;;;;;;;15.63;8.47;;;;;;;-0.42;48.26;97223.78;5055826;28;20181;-80
2023/02/08 10:31:36;;;;;;;12.93;7.63;;;;;;;-0.33;47.47;97224.38;5045776;28;20245;-78
2023/02/08 10:34:28;;;;;;;13.27;7.03;;;;;;;-0.38;46.99;97216.00;5057973;28;20216;-79
2023/02/08 10:36:54;;;;;;;12.07;7.70;;;;;;;-0.18;47.93;97206.97;5033152;28;20212;-80
2023/02/08 10:39:26;;;;;;;12.23;8.07;;;;;;;-0.20;47.02;97209.56;5044980;28;20218;-80
2023/02/08 10:41:51;;;;;;;13.93;8.13;;;;;;;-0.10;46.72;97205.03;5047925;28;20232;-78
2023/02/08 10:44:24;;;;;;;12.03;7.97;;;;;;;-0.15;47.28;97205.19;5050862;28;20184;-79
2023/02/08 10:46:54;;;;;;;12.43;8.07;;;;;;;-0.13;47.17;97205.97;5048861;28;20201;-79
2023/02/08 10:49:24;;;;;;;15.67;9.03;;;;;;;0.05;47.09;97198.66;5051297;28;20252;-78
2023/02/08 10:51:49;;;;;;;16.50;8.20;;;;;;;0.03;46.10;97198.72;5049584;28;20276;-79
2023/02/08 10:54:16;;;;;;;17.07;9.40;;;;;;;-0.07;46.88;97207.53;5047906;28;20216;-80
2023/02/08 10:56:56;;;;;;;16.03;9.00;;;;;;;0.15;46.96;97205.19;5044302;28;20656;-80
2023/02/08 10:59:35;;;;;;;12.93;7.90;;;;;;;0.06;46.69;97193.50;5050136;28;20700;-79
2023/02/08 11:02:00;;;;;;;13.90;9.47;;;;;;;0.23;45.93;97204.09;5038915;28;20223;-80
2023/02/08 11:04:25;;;;;;;13.67;8.80;;;;;;;0.12;47.52;97200.19;5046078;28;20186;-79
2023/02/08 11:06:53;;;;;;;13.67;9.10;;;;;;;0.07;46.35;97199.47;5040299;28;20465;-80
2023/02/08 11:09:23;;;;;;;14.23;8.97;;;;;;;0.09;45.91;97192.59;5044135;28;20187;-80
2023/02/08 11:11:51;;;;;;;13.77;8.27;;;;;;;0.14;46.33;97193.31;5047097;28;20197;-78
2023/02/08 11:14:30;;;;;;;12.50;8.10;;;;;;;0.21;45.93;97187.97;5041097;28;20776;-79
2023/02/08 11:16:57;;;;;;;15.47;8.83;;;;;;;0.40;46.42;97182.31;5045361;28;20217;-78
2023/02/08 11:19:30;;;;;;;14.10;9.23;;;;;;;0.46;45.74;97188.09;5047082;28;21069;-79
2023/02/08 11:21:56;;;;;;;16.90;9.80;;;;;;;0.51;45.71;97186.22;5048392;28;20220;-79
2023/02/08 11:24:42;;;;;;;15.50;9.20;;;;;;;0.53;46.17;97175.94;5056070;28;20197;-79
2023/02/08 11:27:37;;;;;;;15.43;9.40;;;;;;;0.37;46.54;97164.53;5056685;28;20190;-78
2023/02/08 11:30:12;;;;;;;14.40;9.13;;;;;;;0.53;46.26;97170.81;5056834;28;20673;-79
2023/02/08 11:32:37;;;;;;;14.97;8.63;;;;;;;0.70;46.50;97170.31;5046977;28;20208;-79
2023/02/08 11:35:32;;;;;;;19.20;10.17;;;;;;;0.68;46.09;97172.91;5046431;28;20252;-79